createdAt,value
2023-03-16T00:01:06.515Z,99.90
2023-03-16T00:03:35.110Z,99.90
2023-03-16T00:06:02.955Z,99.90
2023-03-16T00:08:30.918Z,99.90
2023-03-16T00:10:58.681Z,99.90
2023-03-16T00:13:27.853Z,99.90
2023-03-16T00:15:57.099Z,99.90
2023-03-16T00:18:27.194Z,99.90
2023-03-16T00:20:56.718Z,99.90
2023-03-16T00:23:27.136Z,99.90
2023-03-16T00:25:55.278Z,99.90
2023-03-16T00:28:23.247Z,99.90
2023-03-16T00:30:52.771Z,99.90
2023-03-16T00:33:20.549Z,99.90
2023-03-16T00:35:50.114Z,99.90
2023-03-16T00:38:18.646Z,99.90
2023-03-16T00:40:47.214Z,99.90
2023-03-16T00:43:18.564Z,99.90
2023-03-16T00:45:46.798Z,99.90
2023-03-16T00:48:16.344Z,99.90
2023-03-16T00:50:44.136Z,99.90
2023-03-16T00:53:11.884Z,99.90
2023-03-16T00:55:39.602Z,99.90
2023-03-16T00:58:07.345Z,99.90
2023-03-16T01:00:36.011Z,99.90
2023-03-16T01:03:03.816Z,99.90
2023-03-16T01:05:33.607Z,99.90
2023-03-16T01:08:02.722Z,99.90
2023-03-16T01:10:30.579Z,99.90
2023-03-16T01:12:58.316Z,99.90
2023-03-16T01:15:26.244Z,99.90
2023-03-16T01:17:54.331Z,99.90
2023-03-16T01:20:22.252Z,99.90
2023-03-16T01:22:51.329Z,99.90
2023-03-16T01:25:19.281Z,99.90
2023-03-16T01:27:47.555Z,99.90
2023-03-16T01:30:15.466Z,99.90
2023-03-16T01:32:43.383Z,99.90
2023-03-16T01:35:11.717Z,99.90
2023-03-16T01:37:39.501Z,99.90
2023-03-16T01:40:12.192Z,99.90
2023-03-16T01:42:47.121Z,99.90
2023-03-16T01:45:52.899Z,99.90
2023-03-16T01:48:22.672Z,99.90
2023-03-16T01:50:53.273Z,99.90
2023-03-16T01:53:22.471Z,99.90
2023-03-16T01:55:55.147Z,99.90
2023-03-16T01:58:23.859Z,99.90
2023-03-16T02:00:51.663Z,99.90
2023-03-16T02:03:21.736Z,99.90
2023-03-16T02:05:53.657Z,99.90
2023-03-16T02:08:22.776Z,99.90
2023-03-16T02:10:54.504Z,99.90
2023-03-16T02:13:22.889Z,99.90
2023-03-16T02:15:53.472Z,99.90
2023-03-16T02:18:22.889Z,99.90
2023-03-16T02:20:55.381Z,99.90
2023-03-16T02:23:25.876Z,99.90
2023-03-16T02:26:02.392Z,99.90
2023-03-16T02:28:35.708Z,99.90
2023-03-16T02:31:05.813Z,99.90
2023-03-16T02:33:35.586Z,99.90
2023-03-16T02:36:03.601Z,99.90
2023-03-16T02:38:31.553Z,99.90
2023-03-16T02:41:02.327Z,99.90
2023-03-16T02:43:34.666Z,99.90
2023-03-16T02:46:05.551Z,99.90
2023-03-16T02:48:39.106Z,99.90
2023-03-16T02:51:07.171Z,99.90
2023-03-16T02:53:35.089Z,99.90
2023-03-16T02:56:03.301Z,99.90
2023-03-16T02:58:31.788Z,99.90
2023-03-16T03:00:59.913Z,99.90
2023-03-16T03:03:29.069Z,99.90
2023-03-16T03:05:56.997Z,99.90
2023-03-16T03:08:24.717Z,99.90
2023-03-16T03:10:52.459Z,99.90
2023-03-16T03:13:20.231Z,99.90
2023-03-16T03:15:47.946Z,99.90
2023-03-16T03:18:15.687Z,99.90
2023-03-16T03:20:44.753Z,99.90
2023-03-16T03:23:12.507Z,99.90
2023-03-16T03:25:40.230Z,99.90
2023-03-16T03:28:08.304Z,99.90
2023-03-16T03:30:37.022Z,99.90
2023-03-16T03:33:05.002Z,99.90
2023-03-16T03:35:32.889Z,99.90
2023-03-16T03:38:02.051Z,99.90
2023-03-16T03:40:30.266Z,99.90
2023-03-16T03:42:58.165Z,99.90
2023-03-16T03:45:26.308Z,99.90
2023-03-16T03:47:54.973Z,99.90
2023-03-16T03:50:23.230Z,99.90
2023-03-16T03:52:50.948Z,99.90
2023-03-16T03:55:20.201Z,99.90
2023-03-16T03:57:47.921Z,99.90
2023-03-16T04:00:20.340Z,99.90
2023-03-16T04:02:48.540Z,99.90
2023-03-16T04:05:16.534Z,99.90
2023-03-16T04:07:44.317Z,99.90
2023-03-16T04:10:12.661Z,99.90
2023-03-16T04:12:41.733Z,99.90
2023-03-16T04:15:12.400Z,99.90
2023-03-16T04:17:40.130Z,99.90
2023-03-16T04:20:13.174Z,99.90
2023-03-16T04:22:42.479Z,99.90
2023-03-16T04:25:11.546Z,99.90
2023-03-16T04:27:40.928Z,99.90
2023-03-16T04:30:13.058Z,99.90
2023-03-16T04:32:41.562Z,99.90
2023-03-16T04:35:10.405Z,99.90
2023-03-16T04:37:38.373Z,99.90
2023-03-16T04:40:12.510Z,99.90
2023-03-16T04:42:41.584Z,99.90
2023-03-16T04:45:10.265Z,99.90
2023-03-16T04:47:38.008Z,99.90
2023-03-16T04:50:06.844Z,99.90
2023-03-16T04:52:34.677Z,99.90
2023-03-16T04:55:02.413Z,99.90
2023-03-16T04:57:30.395Z,99.90
2023-03-16T04:59:59.610Z,99.90
2023-03-16T05:02:27.677Z,99.90
2023-03-16T05:04:55.864Z,99.90
2023-03-16T05:07:23.625Z,99.90
2023-03-16T05:09:51.341Z,99.90
2023-03-16T05:12:19.649Z,99.90
2023-03-16T05:14:47.375Z,99.90
2023-03-16T05:17:16.439Z,99.90
2023-03-16T05:19:44.172Z,99.90
2023-03-16T05:22:12.343Z,99.90
2023-03-16T05:24:40.149Z,99.90
2023-03-16T05:27:07.913Z,99.90
2023-03-16T05:29:35.673Z,99.90
2023-03-16T05:32:03.764Z,99.90
2023-03-16T05:34:32.800Z,99.90
2023-03-16T05:37:00.528Z,99.90
2023-03-16T05:39:28.569Z,99.90
2023-03-16T05:41:56.298Z,99.90
2023-03-16T05:44:24.522Z,99.90
2023-03-16T05:46:52.366Z,99.90
2023-03-16T05:49:20.211Z,99.90
2023-03-16T05:51:49.990Z,99.90
2023-03-16T05:54:17.724Z,99.90
2023-03-16T05:56:45.485Z,99.90
2023-03-16T05:59:13.212Z,99.90
2023-03-16T06:01:40.959Z,99.90
2023-03-16T06:04:08.786Z,99.90
2023-03-16T06:06:36.516Z,99.90
2023-03-16T06:09:05.789Z,99.90
2023-03-16T06:11:33.754Z,99.90
2023-03-16T06:14:01.811Z,99.90
2023-03-16T06:16:29.903Z,99.90
2023-03-16T06:18:59.736Z,99.90
2023-03-16T06:21:27.705Z,99.90
2023-03-16T06:23:55.909Z,99.90
2023-03-16T06:26:24.963Z,99.90
2023-03-16T06:28:52.704Z,99.90
2023-03-16T06:31:20.738Z,99.90
2023-03-16T06:33:48.470Z,99.90
2023-03-16T06:36:16.194Z,99.90
2023-03-16T06:38:44.000Z,99.90
2023-03-16T06:41:11.767Z,99.90
2023-03-16T06:43:40.826Z,99.90
2023-03-16T06:46:08.567Z,99.90
2023-03-16T06:48:36.457Z,99.90
2023-03-16T06:51:04.177Z,99.90
2023-03-16T06:53:31.932Z,99.90
2023-03-16T06:55:59.718Z,99.90
2023-03-16T06:58:27.547Z,99.90
2023-03-16T07:00:56.613Z,99.90
2023-03-16T07:03:24.340Z,99.90
2023-03-16T07:05:52.073Z,99.90
2023-03-16T07:08:19.793Z,99.90
2023-03-16T07:10:47.637Z,99.90
2023-03-16T07:13:15.430Z,99.90
2023-03-16T07:15:44.535Z,99.90
2023-03-16T07:18:13.602Z,99.90
2023-03-16T07:20:42.036Z,99.90
2023-03-16T07:23:10.911Z,99.90
2023-03-16T07:25:38.763Z,99.90
2023-03-16T07:28:06.790Z,99.90
2023-03-16T07:30:34.516Z,99.90
2023-03-16T07:33:02.585Z,99.90
2023-03-16T07:35:31.880Z,99.90
2023-03-16T07:37:59.626Z,99.90
2023-03-16T07:40:27.601Z,99.90
2023-03-16T07:42:55.501Z,99.90
2023-03-16T07:45:23.240Z,99.90
2023-03-16T07:47:51.090Z,99.90
2023-03-16T07:50:19.245Z,99.90
2023-03-16T07:52:48.326Z,99.90
2023-03-16T07:55:16.608Z,99.90
2023-03-16T07:57:47.786Z,99.90
2023-03-16T08:00:16.678Z,99.90
2023-03-16T08:02:44.466Z,99.90
2023-03-16T08:05:12.807Z,99.90
2023-03-16T08:07:41.179Z,99.90
2023-03-16T08:10:11.986Z,99.90
2023-03-16T08:12:39.841Z,99.90
2023-03-16T08:15:08.824Z,99.90
2023-03-16T08:17:36.590Z,99.90
2023-03-16T08:20:08.042Z,99.90
2023-03-16T08:22:37.166Z,99.90
2023-03-16T08:25:05.938Z,99.90
2023-03-16T08:27:35.082Z,99.90
2023-03-16T08:30:04.972Z,99.90
2023-03-16T08:32:33.170Z,99.90
2023-03-16T08:35:01.346Z,99.90
2023-03-16T08:37:29.584Z,99.90
2023-03-16T08:39:57.900Z,99.90
2023-03-16T08:42:25.749Z,99.90
2023-03-16T08:44:55.137Z,99.90
2023-03-16T08:47:24.368Z,99.90
2023-03-16T08:49:52.164Z,99.90
2023-03-16T08:52:19.935Z,99.90
2023-03-16T08:55:01.890Z,99.90
2023-03-16T08:57:30.947Z,99.90
2023-03-16T09:00:00.177Z,99.90
2023-03-16T09:02:28.479Z,99.90
2023-03-16T09:04:56.397Z,99.90
2023-03-16T09:07:24.203Z,99.90
2023-03-16T09:09:52.627Z,99.90
2023-03-16T09:12:20.527Z,99.90
2023-03-16T09:14:48.940Z,99.90
2023-03-16T09:17:18.574Z,99.90
2023-03-16T09:19:51.965Z,99.90
2023-03-16T09:22:20.955Z,99.90
2023-03-16T09:24:49.496Z,99.90
2023-03-16T09:27:18.268Z,99.90
2023-03-16T09:29:46.560Z,99.90
2023-03-16T09:32:15.304Z,99.90
2023-03-16T09:34:44.674Z,99.90
2023-03-16T09:37:12.442Z,99.90
2023-03-16T09:39:40.542Z,99.90
2023-03-16T09:42:15.581Z,99.90
2023-03-16T09:44:52.382Z,99.90
2023-03-16T09:47:27.176Z,99.90
2023-03-16T09:49:59.204Z,99.90
2023-03-16T09:52:34.285Z,99.90
2023-03-16T09:55:08.060Z,99.90
2023-03-16T09:57:40.986Z,99.90
2023-03-16T10:00:17.982Z,99.90
2023-03-16T10:02:54.689Z,99.90
2023-03-16T10:05:25.119Z,99.90
2023-03-16T10:08:03.669Z,99.90
2023-03-16T10:10:47.282Z,99.90
2023-03-16T10:13:25.818Z,99.90
2023-03-16T10:15:54.928Z,99.90
2023-03-16T10:18:27.185Z,99.90
2023-03-16T10:20:56.283Z,99.90
2023-03-16T10:23:25.773Z,99.90
2023-03-16T10:25:55.344Z,99.90
2023-03-16T10:28:26.072Z,99.90
2023-03-16T10:30:55.414Z,99.90
2023-03-16T10:33:26.917Z,99.90
2023-03-16T10:36:02.595Z,99.90
2023-03-16T10:38:38.788Z,99.90
2023-03-16T10:41:20.184Z,99.90
2023-03-16T10:43:51.663Z,99.90
2023-03-16T10:46:19.874Z,99.90
2023-03-16T10:48:54.562Z,99.90
2023-03-16T10:51:27.117Z,99.90
2023-03-16T10:53:57.009Z,99.80
2023-03-16T10:56:26.123Z,99.90
2023-03-16T10:58:53.902Z,99.90
2023-03-16T11:01:26.793Z,99.90
2023-03-16T11:03:57.010Z,99.90
2023-03-16T11:06:30.502Z,99.90
2023-03-16T11:09:05.692Z,99.90
2023-03-16T11:11:34.245Z,99.90
2023-03-16T11:14:04.431Z,99.90
2023-03-16T11:16:38.178Z,99.90
2023-03-16T11:19:16.569Z,99.90
2023-03-16T11:21:54.872Z,99.90
2023-03-16T11:24:28.595Z,99.90
2023-03-16T11:26:59.351Z,99.90
2023-03-16T11:29:38.270Z,99.80
2023-03-16T11:32:14.133Z,99.80
2023-03-16T11:34:43.360Z,99.70
2023-03-16T11:37:21.551Z,99.70
2023-03-16T11:39:56.607Z,99.60
2023-03-16T11:42:31.022Z,99.60
2023-03-16T11:45:09.968Z,99.70
2023-03-16T11:48:02.455Z,99.70
2023-03-16T11:50:38.045Z,99.60
2023-03-16T11:53:17.276Z,99.40
2023-03-16T11:55:56.388Z,99.50
2023-03-16T11:58:39.733Z,99.50
2023-03-16T12:01:15.090Z,99.50
2023-03-16T12:03:53.897Z,99.40
2023-03-16T12:06:38.541Z,99.20
2023-03-16T12:09:30.998Z,99.00
2023-03-16T12:12:04.978Z,99.10
2023-03-16T12:14:38.655Z,99.10
2023-03-16T12:17:13.087Z,99.00
2023-03-16T12:19:44.953Z,99.00
2023-03-16T12:22:18.967Z,98.90
2023-03-16T12:24:48.597Z,98.90
2023-03-16T12:27:19.180Z,98.90
2023-03-16T12:29:58.347Z,98.80
2023-03-16T12:32:43.875Z,98.70
2023-03-16T12:35:25.193Z,98.10
2023-03-16T12:38:01.520Z,98.00
2023-03-16T12:40:39.453Z,97.90
2023-03-16T12:43:24.741Z,97.70
2023-03-16T12:46:00.302Z,97.70
2023-03-16T12:48:32.491Z,98.20
2023-03-16T12:51:02.810Z,98.10
2023-03-16T12:53:43.317Z,97.90
2023-03-16T12:56:15.120Z,97.90
2023-03-16T12:58:46.900Z,98.00
2023-03-16T13:01:17.192Z,98.20
2023-03-16T13:03:47.991Z,97.80
2023-03-16T13:06:22.676Z,97.70
2023-03-16T13:08:56.661Z,97.90
2023-03-16T13:11:26.935Z,97.80
2023-03-16T13:14:08.599Z,97.90
2023-03-16T13:16:38.270Z,97.80
2023-03-16T13:19:25.904Z,97.80
2023-03-16T13:22:04.017Z,97.80
2023-03-16T13:24:39.839Z,97.70
2023-03-16T13:27:21.169Z,97.60
2023-03-16T13:29:55.864Z,97.70
2023-03-16T13:32:25.158Z,97.70
2023-03-16T13:34:57.906Z,97.90
2023-03-16T13:37:28.374Z,97.50
2023-03-16T13:39:58.401Z,97.60
2023-03-16T13:42:30.038Z,97.40
2023-03-16T13:44:58.712Z,96.90
2023-03-16T13:47:28.161Z,96.90
2023-03-16T13:49:58.720Z,96.90
2023-03-16T13:52:30.290Z,96.90
2023-03-16T13:55:00.067Z,96.90
2023-03-16T13:57:30.705Z,96.90
2023-03-16T14:00:05.891Z,96.80
2023-03-16T14:02:42.621Z,96.70
2023-03-16T14:05:12.668Z,96.50
2023-03-16T14:07:40.615Z,96.60
2023-03-16T14:10:12.260Z,96.40
2023-03-16T14:12:52.424Z,96.30
2023-03-16T14:15:21.774Z,96.40
2023-03-16T14:17:49.533Z,96.00
2023-03-16T14:20:20.885Z,95.80
2023-03-16T14:22:51.549Z,95.10
2023-03-16T14:25:23.574Z,95.40
2023-03-16T14:28:00.993Z,95.10
2023-03-16T14:30:30.706Z,94.30
2023-03-16T14:33:00.707Z,94.90
2023-03-16T14:35:31.852Z,95.00
2023-03-16T14:38:21.257Z,94.70
2023-03-16T14:40:54.601Z,94.80
2023-03-16T14:43:29.647Z,94.70
2023-03-16T14:45:57.981Z,94.60
2023-03-16T14:48:26.613Z,94.60
2023-03-16T14:50:56.170Z,94.20
2023-03-16T14:53:24.518Z,94.10
2023-03-16T14:55:52.268Z,94.10
2023-03-16T14:58:20.292Z,94.40
2023-03-16T15:00:53.724Z,94.10
2023-03-16T15:03:24.544Z,94.10
2023-03-16T15:05:52.877Z,94.00
2023-03-16T15:08:26.555Z,93.80
2023-03-16T15:10:56.117Z,93.90
2023-03-16T15:13:52.502Z,93.90
2023-03-16T15:16:22.894Z,93.90
2023-03-16T15:18:51.774Z,94.00
2023-03-16T15:21:23.255Z,94.30
2023-03-16T15:23:51.287Z,93.90
2023-03-16T15:26:26.157Z,93.70
2023-03-16T15:28:54.064Z,93.50
2023-03-16T15:31:24.082Z,93.20
2023-03-16T15:33:51.840Z,93.30
2023-03-16T15:36:22.068Z,92.80
2023-03-16T15:38:52.031Z,93.00
2023-03-16T15:41:20.431Z,92.90
2023-03-16T15:43:48.392Z,92.90
2023-03-16T15:46:16.499Z,92.70
2023-03-16T15:48:45.668Z,93.00
2023-03-16T15:51:22.349Z,92.50
2023-03-16T15:53:52.509Z,92.50
2023-03-16T15:56:26.496Z,92.90
2023-03-16T15:58:54.246Z,92.90
2023-03-16T16:01:24.062Z,92.50
2023-03-16T16:03:55.322Z,92.60
2023-03-16T16:06:23.980Z,92.90
2023-03-16T16:08:52.223Z,92.60
2023-03-16T16:11:23.034Z,92.70
2023-03-16T16:13:51.507Z,93.00
2023-03-16T16:16:20.534Z,92.90
2023-03-16T16:18:49.413Z,93.00
2023-03-16T16:21:22.287Z,92.90
2023-03-16T16:23:51.317Z,93.00
2023-03-16T16:26:34.390Z,93.00
2023-03-16T16:29:14.520Z,93.00
2023-03-16T16:31:42.621Z,93.50
2023-03-16T16:34:14.017Z,93.40
2023-03-16T16:36:43.117Z,93.50
2023-03-16T16:39:11.714Z,93.50
2023-03-16T16:41:40.980Z,93.30
2023-03-16T16:44:19.111Z,93.50
2023-03-16T16:46:49.108Z,93.50
2023-03-16T16:49:20.055Z,93.40
2023-03-16T16:51:49.333Z,93.40
2023-03-16T16:54:19.392Z,93.50
2023-03-16T16:56:48.033Z,93.60
2023-03-16T16:59:18.884Z,93.70
2023-03-16T17:01:47.651Z,93.50
2023-03-16T17:04:17.525Z,93.50
2023-03-16T17:06:46.721Z,93.50
2023-03-16T17:09:16.145Z,93.40
2023-03-16T17:11:45.460Z,93.50
2023-03-16T17:14:18.052Z,93.40
2023-03-16T17:16:47.447Z,93.40
2023-03-16T17:19:21.224Z,93.40
2023-03-16T17:21:49.831Z,93.20
2023-03-16T17:24:19.264Z,93.40
2023-03-16T17:26:48.867Z,93.40
2023-03-16T17:29:22.477Z,93.50
2023-03-16T17:31:51.247Z,93.50
2023-03-16T17:34:20.812Z,93.60
2023-03-16T17:36:49.370Z,93.60
2023-03-16T17:39:20.917Z,93.50
2023-03-16T17:41:49.532Z,93.50
2023-03-16T17:44:19.972Z,93.60
2023-03-16T17:46:48.248Z,93.50
2023-03-16T17:49:18.047Z,93.60
2023-03-16T17:51:46.457Z,93.60
2023-03-16T17:54:14.312Z,93.70
2023-03-16T17:56:43.809Z,93.70
2023-03-16T17:59:17.462Z,93.70
2023-03-16T18:01:46.961Z,93.50
2023-03-16T18:04:17.604Z,93.70
2023-03-16T18:06:46.958Z,93.60
2023-03-16T18:09:14.929Z,94.10
2023-03-16T18:11:47.569Z,93.70
2023-03-16T18:14:25.228Z,93.70
2023-03-16T18:16:54.519Z,93.70
2023-03-16T18:19:25.237Z,93.60
2023-03-16T18:21:53.996Z,93.60
2023-03-16T18:30:44.969Z,93.70
2023-03-16T18:33:25.779Z,93.60
2023-03-16T18:35:56.038Z,93.60
2023-03-16T18:38:30.480Z,93.60
2023-03-16T18:40:59.601Z,93.70
2023-03-16T18:43:27.645Z,93.60
2023-03-16T18:45:56.934Z,93.70
2023-03-16T18:48:29.229Z,93.50
2023-03-16T18:50:57.025Z,93.60
2023-03-16T18:53:24.901Z,93.70
2023-03-16T18:55:54.611Z,93.50
2023-03-16T18:58:25.204Z,93.40
2023-03-16T19:00:57.461Z,93.50
2023-03-16T19:03:27.712Z,93.60
2023-03-16T19:05:56.963Z,93.60
2023-03-16T19:08:26.268Z,93.50
2023-03-16T19:10:56.948Z,93.50
2023-03-16T19:13:26.250Z,93.60
2023-03-16T19:15:57.589Z,93.60
2023-03-16T19:18:26.056Z,93.60
2023-03-16T19:20:55.148Z,93.60
2023-03-16T19:23:28.303Z,93.60
2023-03-16T19:25:57.758Z,93.60
2023-03-16T19:28:28.937Z,93.60
2023-03-16T19:30:58.172Z,93.60
2023-03-16T19:33:27.537Z,93.60
2023-03-16T19:35:56.684Z,93.50
2023-03-16T19:38:26.196Z,93.60
2023-03-16T19:40:56.852Z,93.60
2023-03-16T19:43:25.840Z,93.50
2023-03-16T19:45:54.904Z,93.60
2023-03-16T19:48:31.515Z,93.70
2023-03-16T19:50:59.248Z,93.60
2023-03-16T19:53:27.373Z,93.60
2023-03-16T19:55:55.465Z,93.60
2023-03-16T19:58:30.426Z,93.60
2023-03-16T20:00:58.796Z,93.70
2023-03-16T20:03:28.377Z,93.70
2023-03-16T20:05:56.092Z,93.60
2023-03-16T20:08:26.228Z,93.60
2023-03-16T20:10:57.390Z,93.60
2023-03-16T20:13:26.230Z,93.70
2023-03-16T20:15:54.194Z,93.70
2023-03-16T20:18:21.975Z,93.70
2023-03-16T20:20:51.556Z,93.70
2023-03-16T20:23:23.327Z,93.70
2023-03-16T20:25:52.047Z,93.80
2023-03-16T20:28:22.711Z,93.80
2023-03-16T20:30:51.601Z,93.80
2023-03-16T20:33:22.748Z,93.80
2023-03-16T20:35:54.244Z,93.80
2023-03-16T20:38:23.080Z,93.80
2023-03-16T20:40:53.183Z,93.70
2023-03-16T20:43:25.434Z,93.80
2023-03-16T20:45:54.715Z,93.90
2023-03-16T20:48:25.220Z,93.90
2023-03-16T20:50:55.934Z,93.90
2023-03-16T20:53:24.525Z,93.90
2023-03-16T20:55:54.440Z,93.90
2023-03-16T20:58:25.116Z,94.00
2023-03-16T21:00:57.395Z,94.00
2023-03-16T21:03:27.463Z,94.00
2023-03-16T21:05:59.879Z,94.00
2023-03-16T21:08:28.266Z,94.00
2023-03-16T21:10:57.460Z,94.00
2023-03-16T21:13:28.949Z,94.00
2023-03-16T21:15:59.621Z,94.10
2023-03-16T21:18:27.444Z,94.10
2023-03-16T21:20:56.720Z,94.10
2023-03-16T21:23:24.813Z,94.10
2023-03-16T21:25:55.662Z,94.10
2023-03-16T21:28:25.175Z,94.10
2023-03-16T21:30:55.927Z,94.10
2023-03-16T21:33:29.929Z,94.10
2023-03-16T21:36:00.776Z,94.10
2023-03-16T21:38:30.023Z,94.20
2023-03-16T21:40:57.830Z,94.10
2023-03-16T21:43:26.647Z,94.20
2023-03-16T21:45:55.244Z,94.20
2023-03-16T21:48:25.159Z,94.20
2023-03-16T21:50:54.357Z,94.20
2023-03-16T21:53:26.982Z,94.20
2023-03-16T21:55:55.519Z,94.20
2023-03-16T21:58:24.837Z,94.20
2023-03-16T22:00:54.089Z,94.20
2023-03-16T22:03:26.503Z,94.20
2023-03-16T22:05:55.673Z,94.30
2023-03-16T22:08:28.199Z,94.30
2023-03-16T22:10:56.782Z,94.30
2023-03-16T22:13:26.406Z,94.30
2023-03-16T22:15:57.433Z,94.30
2023-03-16T22:18:28.937Z,94.30
2023-03-16T22:20:58.375Z,94.30
2023-03-16T22:23:33.574Z,94.30
2023-03-16T22:26:01.842Z,94.30
2023-03-16T22:28:29.849Z,94.30
2023-03-16T22:30:59.260Z,94.30
2023-03-16T22:33:29.761Z,94.30
2023-03-16T22:36:01.911Z,94.30
2023-03-16T22:38:31.085Z,94.30
2023-03-16T22:40:59.540Z,94.30
2023-03-16T22:43:31.923Z,94.40
2023-03-16T22:45:59.759Z,94.40
2023-03-16T22:48:29.854Z,94.40
2023-03-16T22:51:01.789Z,94.40
2023-03-16T22:53:37.811Z,94.40
2023-03-16T22:56:07.043Z,94.40
2023-03-16T22:58:37.294Z,94.50
2023-03-16T23:01:16.954Z,94.50
2023-03-16T23:03:45.816Z,94.50
2023-03-16T23:06:18.001Z,94.50
2023-03-16T23:08:47.554Z,94.50
2023-03-16T23:11:19.205Z,94.80
2023-03-16T23:13:46.910Z,94.50
2023-03-16T23:16:20.937Z,94.50
2023-03-16T23:18:49.406Z,94.50
2023-03-16T23:21:20.565Z,94.50
2023-03-16T23:24:02.648Z,94.50
2023-03-16T23:26:31.142Z,94.50
2023-03-16T23:28:59.456Z,94.50
2023-03-16T23:31:28.294Z,94.50
2023-03-16T23:33:56.369Z,94.50
2023-03-16T23:36:26.018Z,94.50
2023-03-16T23:38:55.183Z,94.60
2023-03-16T23:41:25.023Z,94.60
2023-03-16T23:43:53.950Z,94.60
2023-03-16T23:46:24.479Z,94.60
2023-03-16T23:48:53.631Z,94.60
2023-03-16T23:51:23.809Z,94.60
2023-03-16T23:53:52.048Z,94.50
2023-03-16T23:56:22.065Z,94.60
2023-03-16T23:58:50.597Z,94.60
